Time;durP1;ratioP1;P1;durP2;ratioP2;P2;SDS_P1;SDS_P2;PMS_P1;PMS_P2;Temp;Humidity;BMP_temperature;BMP_pressure;BME280_temperature;BME280_humidity;BME280_pressure;Samples;Min_cycle;Max_cycle;Signal;HPM_P1;HPM_P2
2021/11/12 00:13:47;;;;;;;74.87;36.70;;;6.50;99.90;;;;;;5063350;28;20216;-63
2021/11/12 00:16:16;;;;;;;77.83;37.40;;;6.40;99.90;;;;;;5045333;28;20240;-64
2021/11/12 00:18:45;;;;;;;77.80;37.77;;;6.30;99.90;;;;;;5068055;28;20187;-63
2021/11/12 00:21:14;;;;;;;79.03;37.97;;;6.20;99.90;;;;;;5062177;28;20204;-64
2021/11/12 00:23:43;;;;;;;72.87;37.13;;;6.10;99.90;;;;;;5063364;28;20772;-64
2021/11/12 00:26:12;;;;;;;90.80;41.30;;;6.00;99.90;;;;;;5062104;28;20200;-64
2021/11/12 00:28:50;;;;;;;86.93;39.47;;;6.00;99.90;;;;;;5065870;28;20220;-64
2021/11/12 00:31:26;;;;;;;86.90;39.77;;;5.90;99.90;;;;;;5063027;28;20270;-64
2021/11/12 00:36:56;;;;;;;74.37;37.67;;;5.80;99.90;;;;;;4970762;28;20212;-63
2021/11/12 00:39:30;;;;;;;73.63;38.87;;;5.70;99.90;;;;;;5063459;28;20710;-64
2021/11/12 00:42:08;;;;;;;80.07;39.60;;;5.60;99.90;;;;;;5062383;28;20265;-64
2021/11/12 00:44:38;;;;;;;80.03;39.93;;;5.60;99.90;;;;;;5063073;28;20207;-64
2021/11/12 00:47:17;;;;;;;68.87;37.63;;;5.60;99.90;;;;;;5044395;28;20216;-64
2021/11/12 00:49:57;;;;;;;80.07;39.27;;;5.50;99.90;;;;;;5065570;28;20238;-62
2021/11/12 00:52:40;;;;;;;86.67;40.77;;;5.50;99.90;;;;;;5069248;28;20606;-64
2021/11/12 00:55:09;;;;;;;79.20;39.67;;;5.50;99.90;;;;;;5048159;28;20226;-64
2021/11/12 00:57:40;;;;;;;76.43;38.30;;;5.40;99.90;;;;;;5066448;28;20245;-63
2021/11/12 01:00:10;;;;;;;84.87;40.13;;;5.40;99.90;;;;;;5061715;28;20204;-64
2021/11/12 01:02:40;;;;;;;85.77;39.60;;;5.40;99.90;;;;;;5061650;28;20197;-64
2021/11/12 01:05:24;;;;;;;78.80;39.23;;;5.30;99.90;;;;;;5042532;28;20559;-64
2021/11/12 01:10:53;;;;;;;87.23;38.67;;;5.30;99.90;;;;;;5048719;28;20215;-63
2021/11/12 01:13:26;;;;;;;77.90;37.50;;;5.20;99.90;;;;;;5046373;28;20223;-64
2021/11/12 01:16:03;;;;;;;78.40;37.87;;;5.10;99.90;;;;;;5064197;28;20385;-63
2021/11/12 01:18:41;;;;;;;81.57;37.67;;;5.00;99.90;;;;;;5057418;28;20179;-63
2021/11/12 01:21:14;;;;;;;80.67;37.97;;;5.00;99.90;;;;;;5064864;28;20299;-64
2021/11/12 01:23:46;;;;;;;83.63;40.00;;;4.90;99.90;;;;;;5060214;28;20641;-63
2021/11/12 01:26:15;;;;;;;89.00;41.20;;;4.80;99.90;;;;;;5077120;28;20203;-64
2021/11/12 01:28:48;;;;;;;89.60;40.37;;;4.80;99.90;;;;;;5041780;28;20205;-64
2021/11/12 01:31:17;;;;;;;97.97;41.33;;;4.80;99.90;;;;;;5048081;28;20200;-64
2021/11/12 01:33:46;;;;;;;85.07;40.83;;;4.90;99.90;;;;;;5062840;28;20192;-61
2021/11/12 01:36:28;;;;;;;101.07;42.07;;;4.90;99.90;;;;;;5040027;28;20184;-64
2021/11/12 01:39:01;;;;;;;83.83;40.17;;;4.90;99.90;;;;;;5059491;28;20249;-64
2021/11/12 01:41:32;;;;;;;83.13;39.63;;;4.80;99.90;;;;;;5045827;28;20562;-63
2021/11/12 01:44:05;;;;;;;94.53;41.00;;;4.70;99.90;;;;;;5063930;28;20212;-64
2021/11/12 01:46:54;;;;;;;83.33;39.33;;;4.60;99.90;;;;;;5063078;28;20606;-64
2021/11/12 01:49:28;;;;;;;80.60;38.63;;;4.50;99.90;;;;;;5061085;28;20291;-64
2021/11/12 01:52:07;;;;;;;77.40;38.33;;;4.50;99.90;;;;;;5060170;28;20196;-63
2021/11/12 02:00:11;;;;;;;81.07;36.97;;;4.10;99.90;;;;;;5056133;28;20208;-64
2021/11/12 02:02:40;;;;;;;74.63;36.10;;;4.00;99.90;;;;;;5068139;28;20204;-62
2021/11/12 02:05:10;;;;;;;82.10;35.77;;;4.00;99.90;;;;;;5068176;28;20192;-64
2021/11/12 02:07:39;;;;;;;83.13;36.87;;;3.90;99.90;;;;;;5063713;28;20204;-64
2021/11/12 02:10:11;;;;;;;74.70;35.83;;;3.90;99.90;;;;;;5064265;28;20203;-64
2021/11/12 02:15:28;;;;;;;84.30;36.30;;;3.80;99.90;;;;;;5060570;28;20326;-64
2021/11/12 02:18:03;;;;;;;81.63;37.57;;;3.80;99.90;;;;;;5065509;28;20188;-63
2021/11/12 02:20:36;;;;;;;85.03;39.00;;;3.70;99.90;;;;;;5047647;28;20260;-64
2021/11/12 02:23:06;;;;;;;86.73;41.07;;;3.70;99.90;;;;;;5074995;28;20760;-63
2021/11/12 02:25:40;;;;;;;82.07;38.37;;;3.70;99.90;;;;;;5066321;28;20622;-63
2021/11/12 02:28:12;;;;;;;88.60;39.27;;;3.70;99.90;;;;;;5062389;28;20227;-63
2021/11/12 02:30:42;;;;;;;84.30;38.67;;;3.60;99.90;;;;;;5062289;28;20195;-63
2021/11/12 02:33:16;;;;;;;88.33;39.27;;;3.50;99.90;;;;;;5068076;28;20216;-64
2021/11/12 02:36:00;;;;;;;89.87;40.10;;;3.50;99.90;;;;;;5065370;28;20617;-63
2021/11/12 02:38:33;;;;;;;96.30;40.47;;;3.40;99.90;;;;;;5080748;28;20188;-63
2021/11/12 02:41:03;;;;;;;86.17;39.97;;;3.40;99.90;;;;;;5060149;28;20601;-63
2021/11/12 02:43:32;;;;;;;89.07;41.07;;;3.40;99.90;;;;;;5066666;28;20207;-63
2021/11/12 02:46:02;;;;;;;98.00;43.67;;;3.40;99.90;;;;;;5060430;28;20524;-63
2021/11/12 02:48:34;;;;;;;107.10;45.87;;;3.50;99.90;;;;;;5066407;28;20215;-63
2021/11/12 02:51:04;;;;;;;99.87;42.00;;;3.60;99.90;;;;;;5045252;28;20617;-64
2021/11/12 02:53:35;;;;;;;89.50;39.67;;;3.60;99.90;;;;;;5044793;28;20197;-63
2021/11/12 02:56:07;;;;;;;91.73;40.90;;;3.50;99.90;;;;;;5063332;28;20192;-63
2021/11/12 02:58:38;;;;;;;103.03;44.00;;;3.40;99.90;;;;;;5066323;28;20242;-63
2021/11/12 03:01:07;;;;;;;95.63;42.27;;;3.40;99.90;;;;;;5045732;28;20681;-64
2021/11/12 03:03:38;;;;;;;105.00;45.10;;;3.40;99.90;;;;;;5064756;28;20204;-63
2021/11/12 03:06:07;;;;;;;103.83;43.73;;;3.40;99.90;;;;;;5065822;28;20421;-63
2021/11/12 03:08:36;;;;;;;100.77;42.33;;;3.40;99.90;;;;;;5065648;28;21585;-63
2021/11/12 03:11:06;;;;;;;93.90;40.70;;;3.30;99.90;;;;;;5062298;28;20544;-63
2021/11/12 03:13:35;;;;;;;90.13;38.87;;;3.20;99.90;;;;;;5060298;28;20740;-63
2021/11/12 03:16:05;;;;;;;93.10;41.97;;;3.10;99.90;;;;;;5064757;28;20714;-63
2021/11/12 03:18:34;;;;;;;95.93;41.70;;;3.00;99.90;;;;;;5061020;28;20189;-63
2021/11/12 03:21:03;;;;;;;92.07;40.37;;;3.00;99.90;;;;;;5063719;28;20741;-63
2021/11/12 03:23:35;;;;;;;94.47;41.00;;;3.00;99.90;;;;;;5076333;28;20947;-63
2021/11/12 03:26:17;;;;;;;89.20;40.23;;;3.00;99.90;;;;;;5064935;28;20193;-63
2021/11/12 03:29:09;;;;;;;87.03;39.03;;;3.00;99.90;;;;;;5065089;28;20630;-63
2021/11/12 04:02:47;;;;;;;91.33;41.27;;;3.30;99.90;;;;;;5053141;28;20250;-63
2021/11/12 04:05:45;;;;;;;92.73;42.97;;;3.30;99.90;;;;;;5063805;28;20258;-64
2021/11/12 04:19:41;;;;;;;89.53;40.90;;;3.20;99.90;;;;;;5040327;28;20275;-63
2021/11/12 04:30:53;;;;;;;92.97;40.70;;;3.10;99.90;;;;;;5027201;28;20674;-63
2021/11/12 05:09:52;;;;;;;83.80;37.13;;;2.90;99.90;;;;;;5027213;28;20224;-63
2021/11/12 05:26:44;;;;;;;89.00;38.50;;;2.80;99.90;;;;;;5065901;28;20204;-63
2021/11/12 05:51:34;;;;;;;92.70;39.07;;;2.60;99.90;;;;;;5053770;28;20223;-63
2021/11/12 05:56:52;;;;;;;100.97;40.17;;;2.70;99.90;;;;;;5060080;28;20204;-64
2021/11/12 05:59:21;;;;;;;90.80;39.93;;;2.70;99.90;;;;;;5062956;28;20675;-64
2021/11/12 06:01:49;;;;;;;97.17;39.07;;;2.70;99.90;;;;;;5059270;28;20208;-63
2021/11/12 06:04:55;;;;;;;105.20;41.53;;;2.70;99.90;;;;;;5057779;28;20203;-63
2021/11/12 06:08:01;;;;;;;106.23;40.70;;;2.70;99.90;;;;;;5044840;28;20188;-63
2021/11/12 06:10:29;;;;;;;104.87;41.67;;;2.70;99.90;;;;;;5061604;28;20243;-64
2021/11/12 06:12:59;;;;;;;111.87;43.27;;;2.70;99.90;;;;;;5061322;28;20265;-63
2021/11/12 06:15:27;;;;;;;104.83;41.57;;;2.60;99.90;;;;;;5058018;28;20233;-63
2021/11/12 06:17:57;;;;;;;111.33;42.13;;;2.60;99.90;;;;;;5044196;28;20206;-63
2021/11/12 06:20:25;;;;;;;94.67;39.13;;;2.60;99.90;;;;;;5063593;28;20682;-64
2021/11/12 06:22:54;;;;;;;97.27;40.33;;;2.60;99.90;;;;;;5060121;28;20671;-63
2021/11/12 06:25:23;;;;;;;100.10;41.37;;;2.50;99.90;;;;;;5075873;28;20659;-63
2021/11/12 06:27:52;;;;;;;104.27;41.57;;;2.50;99.90;;;;;;5059862;28;20204;-63
2021/11/12 06:30:22;;;;;;;98.27;40.77;;;2.50;99.90;;;;;;5071466;28;20208;-63
2021/11/12 06:32:50;;;;;;;106.43;41.47;;;2.50;99.90;;;;;;5059504;28;20905;-63
2021/11/12 06:35:24;;;;;;;110.20;41.17;;;2.60;99.90;;;;;;5071493;28;20762;-63
2021/11/12 06:37:53;;;;;;;100.67;40.20;;;2.60;99.90;;;;;;5056941;28;20200;-63
2021/11/12 06:40:30;;;;;;;90.53;37.77;;;2.60;99.90;;;;;;5057907;28;20658;-63
2021/11/12 06:43:05;;;;;;;93.87;39.70;;;2.60;99.90;;;;;;5048668;28;20211;-63
2021/11/12 06:51:11;;;;;;;99.20;40.63;;;2.50;99.90;;;;;;5064509;28;20211;-63
2021/11/12 06:53:41;;;;;;;106.10;40.47;;;2.50;99.90;;;;;;5064086;28;20551;-62
2021/11/12 06:56:10;;;;;;;102.47;39.13;;;2.50;99.90;;;;;;5066119;28;20227;-63
2021/11/12 06:58:40;;;;;;;92.33;37.80;;;2.50;99.90;;;;;;5063419;28;20619;-63
2021/11/12 07:01:11;;;;;;;95.53;37.97;;;2.50;99.90;;;;;;5062981;28;20249;-63
2021/11/12 07:03:39;;;;;;;102.80;39.40;;;2.50;99.90;;;;;;5064613;28;20204;-63
2021/11/12 07:06:07;;;;;;;94.37;37.93;;;2.50;99.90;;;;;;5062218;28;20663;-63
2021/11/12 07:08:41;;;;;;;89.53;38.80;;;2.40;99.90;;;;;;5065806;28;20196;-63
2021/11/12 07:11:09;;;;;;;94.73;37.93;;;2.40;99.90;;;;;;5068679;28;20215;-63
2021/11/12 07:13:38;;;;;;;95.40;37.70;;;2.30;99.90;;;;;;5064094;28;20203;-63
2021/11/12 07:16:07;;;;;;;94.57;37.90;;;2.30;99.90;;;;;;5061898;28;20714;-63
2021/11/12 07:18:37;;;;;;;92.77;38.60;;;2.30;99.90;;;;;;5076272;28;20198;-63
2021/11/12 07:21:06;;;;;;;90.67;36.40;;;2.40;99.90;;;;;;5065526;28;20204;-63
2021/11/12 07:23:55;;;;;;;92.30;36.30;;;2.30;99.90;;;;;;5065666;28;20275;-62
2021/11/12 07:26:24;;;;;;;76.60;34.20;;;2.40;99.90;;;;;;5065277;28;20196;-63
2021/11/12 07:28:52;;;;;;;94.53;35.47;;;2.40;99.90;;;;;;5051043;28;20193;-63
2021/11/12 07:31:41;;;;;;;92.57;36.57;;;2.30;99.90;;;;;;5068147;28;20261;-63
2021/11/12 07:34:11;;;;;;;95.00;36.97;;;2.30;99.90;;;;;;5063511;28;20196;-63
2021/11/12 07:36:43;;;;;;;90.87;37.20;;;2.40;99.90;;;;;;5064057;28;20204;-63
2021/11/12 07:39:16;;;;;;;83.07;36.47;;;2.40;99.90;;;;;;5064086;28;20204;-63
2021/11/12 07:42:07;;;;;;;91.73;38.23;;;2.40;99.90;;;;;;5044329;28;20191;-63
2021/11/12 07:44:42;;;;;;;90.33;36.80;;;2.40;99.90;;;;;;5064930;28;20211;-63
2021/11/12 07:47:13;;;;;;;87.83;36.70;;;2.40;99.90;;;;;;5066931;28;20195;-63
2021/11/12 07:49:45;;;;;;;96.73;37.93;;;2.50;99.90;;;;;;5051055;28;20192;-63
2021/11/12 07:52:16;;;;;;;92.33;37.73;;;2.50;99.90;;;;;;5068438;28;20617;-63
2021/11/12 07:54:47;;;;;;;91.70;37.97;;;2.60;99.90;;;;;;5049380;28;20192;-63
2021/11/12 07:57:16;;;;;;;86.77;37.43;;;2.60;99.90;;;;;;5068703;28;20187;-63
2021/11/12 07:59:44;;;;;;;90.90;38.73;;;2.60;99.90;;;;;;5066067;28;20192;-63
2021/11/12 08:02:15;;;;;;;90.70;38.57;;;2.60;99.90;;;;;;5067157;28;20271;-64
2021/11/12 08:04:46;;;;;;;93.23;40.77;;;2.70;99.90;;;;;;5064137;28;20270;-63
2021/11/12 08:07:15;;;;;;;92.00;39.07;;;2.80;99.90;;;;;;5060469;28;20197;-63
2021/11/12 08:09:52;;;;;;;93.63;40.00;;;2.90;99.90;;;;;;5062421;28;20292;-63
2021/11/12 08:12:23;;;;;;;91.27;39.47;;;2.90;99.90;;;;;;5067574;28;20305;-63
2021/11/12 08:15:01;;;;;;;87.50;39.20;;;2.90;99.90;;;;;;5064057;28;20200;-63
2021/11/12 08:17:36;;;;;;;86.47;37.80;;;3.00;99.90;;;;;;5023622;28;20216;-63
2021/11/12 08:20:14;;;;;;;82.17;37.10;;;3.00;99.90;;;;;;5025136;28;20243;-63
2021/11/12 08:22:46;;;;;;;77.27;35.60;;;3.10;99.90;;;;;;5025491;28;20197;-63
2021/11/12 08:25:21;;;;;;;72.47;34.97;;;3.10;99.90;;;;;;5022428;28;20621;-63
2021/11/12 08:28:10;;;;;;;82.63;36.17;;;3.20;99.90;;;;;;5022033;28;20207;-63
2021/11/12 08:31:05;;;;;;;72.63;35.80;;;3.20;99.90;;;;;;5025956;28;20245;-63
2021/11/12 08:33:40;;;;;;;76.83;35.30;;;3.20;99.90;;;;;;5021698;28;20197;-63
2021/11/12 08:39:13;;;;;;;70.37;32.50;;;3.40;99.90;;;;;;5127221;27;20537;-62
2021/11/12 08:41:45;;;;;;;70.83;33.37;;;3.50;99.90;;;;;;5132825;27;20720;-63
2021/11/12 08:44:21;;;;;;;77.63;34.30;;;3.60;99.90;;;;;;5127635;27;20197;-63
2021/11/12 08:46:53;;;;;;;72.83;34.00;;;3.70;99.90;;;;;;5128124;27;20683;-63
2021/11/12 08:49:26;;;;;;;72.07;33.67;;;3.80;99.90;;;;;;5121887;27;20223;-63
2021/11/12 08:51:54;;;;;;;63.97;32.67;;;3.90;99.90;;;;;;5132117;27;20242;-62
2021/11/12 08:54:26;;;;;;;66.33;32.97;;;4.10;99.90;;;;;;5130261;27;20222;-63
2021/11/12 08:56:55;;;;;;;63.20;33.10;;;4.20;99.90;;;;;;5125911;27;20251;-62
2021/11/12 08:59:24;;;;;;;62.53;31.67;;;4.30;99.90;;;;;;5134454;27;20191;-62
2021/11/12 09:01:54;;;;;;;61.10;30.47;;;4.30;99.90;;;;;;5122730;27;20552;-63
2021/11/12 09:04:23;;;;;;;61.20;30.27;;;4.40;99.90;;;;;;5128728;27;20289;-62
2021/11/12 09:06:52;;;;;;;57.20;28.83;;;4.60;99.90;;;;;;5125313;27;20261;-63
2021/11/12 09:09:20;;;;;;;51.27;27.63;;;4.70;99.90;;;;;;5124705;27;20696;-62
2021/11/12 09:11:50;;;;;;;48.83;27.43;;;4.80;99.90;;;;;;5128447;27;20863;-63
2021/11/12 09:14:21;;;;;;;49.77;27.30;;;5.00;99.90;;;;;;5127978;27;20267;-63
2021/11/12 09:16:49;;;;;;;46.63;25.80;;;5.10;99.90;;;;;;5128352;27;20194;-63
2021/11/12 09:19:18;;;;;;;48.77;25.80;;;5.20;99.90;;;;;;5123985;27;20222;-63
2021/11/12 09:21:49;;;;;;;48.47;24.80;;;5.30;99.90;;;;;;5123796;27;20198;-62
2021/11/12 09:24:17;;;;;;;43.13;24.63;;;5.50;99.90;;;;;;5128939;27;20531;-62
2021/11/12 09:26:45;;;;;;;45.53;25.20;;;5.60;99.90;;;;;;5132044;27;20252;-62
2021/11/12 09:29:15;;;;;;;41.67;23.63;;;5.80;99.90;;;;;;5132204;27;20190;-63
2021/11/12 09:31:45;;;;;;;39.10;23.03;;;5.90;99.90;;;;;;5125126;27;20222;-63
2021/11/12 09:34:14;;;;;;;43.10;21.93;;;6.00;99.90;;;;;;5128924;27;20187;-63
2021/11/12 09:36:43;;;;;;;34.83;21.90;;;6.20;99.90;;;;;;5153551;27;20183;-63
2021/11/12 09:39:11;;;;;;;39.07;21.07;;;6.30;99.90;;;;;;5126094;27;20242;-63
2021/11/12 09:41:39;;;;;;;34.03;20.73;;;6.40;99.90;;;;;;5124703;27;20225;-63
2021/11/12 09:44:09;;;;;;;38.23;21.37;;;6.50;99.90;;;;;;5125587;27;20333;-63
2021/11/12 09:46:38;;;;;;;33.63;20.63;;;6.60;99.90;;;;;;5128351;27;20740;-62
2021/11/12 09:49:06;;;;;;;34.83;21.40;;;6.70;99.90;;;;;;5116789;27;20282;-64
2021/11/12 09:51:35;;;;;;;32.33;20.50;;;6.80;99.90;;;;;;5115224;27;20202;-63
2021/11/12 09:54:04;;;;;;;29.70;19.53;;;7.00;99.90;;;;;;5112086;27;20683;-63
2021/11/12 09:56:34;;;;;;;35.37;21.00;;;7.20;99.90;;;;;;5113637;27;20247;-63
2021/11/12 09:59:02;;;;;;;34.13;19.80;;;7.30;99.90;;;;;;5105953;27;20210;-62
2021/11/12 10:01:33;;;;;;;30.27;18.37;;;7.40;99.90;;;;;;5111105;27;20653;-63
2021/11/12 10:04:06;;;;;;;29.43;18.43;;;7.50;99.90;;;;;;5114975;27;20215;-63
2021/11/12 10:06:37;;;;;;;29.83;18.43;;;7.60;99.90;;;;;;5075171;27;20202;-63
2021/11/12 10:09:14;;;;;;;27.77;17.50;;;7.70;99.90;;;;;;5097972;27;20191;-63
2021/11/12 10:11:49;;;;;;;33.50;18.67;;;7.90;99.90;;;;;;5107575;27;20210;-62
2021/11/12 10:14:38;;;;;;;27.87;17.33;;;8.00;99.90;;;;;;5098876;27;20190;-63
2021/11/12 10:17:09;;;;;;;32.10;18.83;;;8.10;99.90;;;;;;5095953;27;20235;-63
2021/11/12 10:19:45;;;;;;;28.63;18.00;;;8.20;99.90;;;;;;5100925;27;20226;-63
2021/11/12 10:22:15;;;;;;;29.70;16.70;;;8.30;99.90;;;;;;5112832;27;20234;-63
2021/11/12 10:24:54;;;;;;;28.77;17.70;;;8.50;99.90;;;;;;5106431;27;20608;-64
2021/11/12 10:27:26;;;;;;;30.00;17.17;;;8.50;99.90;;;;;;5112487;27;20199;-64
2021/11/12 10:29:57;;;;;;;24.80;16.30;;;8.50;99.90;;;;;;5105002;27;20199;-63
2021/11/12 10:32:27;;;;;;;25.07;17.43;;;8.50;99.90;;;;;;5109592;27;20195;-63
2021/11/12 10:35:07;;;;;;;26.43;17.03;;;8.60;99.90;;;;;;5108152;27;20206;-63
2021/11/12 10:37:38;;;;;;;26.73;16.97;;;8.80;99.90;;;;;;5109127;27;20313;-63
2021/11/12 10:40:11;;;;;;;26.27;16.57;;;8.80;99.90;;;;;;5106962;27;20194;-63
2021/11/12 10:42:41;;;;;;;24.93;16.30;;;9.00;99.90;;;;;;5103783;27;20202;-62
2021/11/12 10:45:14;;;;;;;25.93;16.23;;;9.10;99.90;;;;;;5103768;27;20251;-63
2021/11/12 10:47:49;;;;;;;23.43;16.10;;;9.20;99.90;;;;;;5093187;27;20195;-63
2021/11/12 10:50:20;;;;;;;22.67;15.40;;;9.30;99.90;;;;;;5108259;27;20205;-63
2021/11/12 10:52:51;;;;;;;26.63;15.60;;;9.40;99.90;;;;;;5106903;27;20194;-63
2021/11/12 10:55:22;;;;;;;25.40;16.03;;;9.50;99.90;;;;;;5106240;27;20200;-63
2021/11/12 10:57:51;;;;;;;27.80;16.20;;;9.40;99.90;;;;;;5097392;28;20233;-63
2021/11/12 11:00:23;;;;;;;27.97;16.33;;;9.40;99.90;;;;;;5087977;27;20703;-64
2021/11/12 11:02:53;;;;;;;27.60;16.60;;;9.50;99.90;;;;;;5106478;27;20256;-63
2021/11/12 11:05:24;;;;;;;26.30;16.13;;;9.70;99.90;;;;;;5112083;27;20195;-63
2021/11/12 11:07:55;;;;;;;34.10;22.97;;;9.90;99.90;;;;;;5098471;27;20666;-62
2021/11/12 11:10:30;;;;;;;24.60;16.10;;;10.00;99.90;;;;;;5100370;27;20191;-63
2021/11/12 11:13:02;;;;;;;21.73;14.43;;;10.40;99.90;;;;;;5100886;27;20281;-63
2021/11/12 11:15:36;;;;;;;27.37;20.27;;;10.50;99.90;;;;;;5104853;28;20610;-63
2021/11/12 11:18:21;;;;;;;36.20;23.40;;;10.50;99.90;;;;;;5111296;27;20221;-64
2021/11/12 11:21:03;;;;;;;19.43;13.90;;;10.50;99.90;;;;;;5095347;27;20206;-63
2021/11/12 11:23:42;;;;;;;16.67;12.40;;;10.70;99.90;;;;;;5110413;27;20221;-63
2021/11/12 11:26:11;;;;;;;17.23;12.77;;;10.90;99.90;;;;;;5096786;27;20194;-64
2021/11/12 11:28:39;;;;;;;17.47;12.50;;;11.00;99.90;;;;;;5106009;27;20251;-64
2021/11/12 11:31:10;;;;;;;18.17;12.80;;;11.00;99.90;;;;;;5114101;27;20789;-64
2021/11/12 11:33:40;;;;;;;18.43;13.33;;;11.10;99.90;;;;;;5108253;27;20199;-66
2021/11/12 11:36:12;;;;;;;16.17;12.23;;;11.20;99.90;;;;;;5109384;27;20206;-64
2021/11/12 11:38:42;;;;;;;17.33;11.63;;;11.20;99.90;;;;;;5102965;27;20245;-64
2021/11/12 11:41:15;;;;;;;17.30;12.37;;;11.30;99.90;;;;;;5105567;28;20221;-64
2021/11/12 11:43:46;;;;;;;17.50;12.20;;;11.40;99.90;;;;;;5094341;27;20195;-64
2021/11/12 11:46:23;;;;;;;15.67;12.20;;;11.30;99.90;;;;;;5102096;28;20195;-64
2021/11/12 11:48:53;;;;;;;25.87;19.50;;;11.30;99.90;;;;;;5105236;27;20691;-64
2021/11/12 11:51:30;;;;;;;20.87;14.10;;;11.30;99.90;;;;;;5103070;27;20210;-64
2021/11/12 11:54:04;;;;;;;18.37;12.37;;;11.30;99.90;;;;;;5101712;27;20252;-64
2021/11/12 11:56:34;;;;;;;14.73;11.37;;;11.40;99.90;;;;;;5108048;27;20205;-64
2021/11/12 11:59:10;;;;;;;16.43;11.77;;;11.40;99.90;;;;;;5099780;28;20700;-64
2021/11/12 12:01:45;;;;;;;15.00;11.27;;;11.30;99.90;;;;;;5097732;27;20234;-64
2021/11/12 12:04:56;;;;;;;16.13;11.43;;;11.20;99.90;;;;;;5098920;27;20306;-63
2021/11/12 12:08:01;;;;;;;19.93;12.67;;;11.30;99.90;;;;;;5123546;27;20201;-63
2021/11/12 12:10:29;;;;;;;14.33;11.03;;;11.40;99.90;;;;;;5121432;27;20183;-64
2021/11/12 12:13:04;;;;;;;18.03;11.80;;;11.60;99.90;;;;;;5099322;28;20699;-63
2021/11/12 12:15:44;;;;;;;16.97;11.07;;;11.60;99.90;;;;;;5099702;28;20186;-64
2021/11/12 12:18:20;;;;;;;15.27;10.90;;;11.60;99.90;;;;;;5103209;28;20218;-64
2021/11/12 12:21:22;;;;;;;13.70;10.50;;;11.60;99.90;;;;;;5101355;28;20230;-63
2021/11/12 13:22:43;;;;;;;14.00;9.70;;;12.00;99.90;;;;;;5103753;28;20292;-63
2021/11/12 13:25:22;;;;;;;14.13;9.83;;;12.00;99.90;;;;;;5100567;28;20722;-64
2021/11/12 13:28:04;;;;;;;12.50;10.07;;;12.00;99.90;;;;;;5105903;28;20252;-63
2021/11/12 13:30:34;;;;;;;15.83;10.53;;;12.00;99.90;;;;;;5108558;28;20225;-63
2021/11/12 13:33:03;;;;;;;13.23;10.07;;;12.00;99.90;;;;;;5107504;28;20253;-64
2021/11/12 13:35:32;;;;;;;12.43;10.00;;;12.00;99.90;;;;;;5107714;28;21289;-64
2021/11/12 13:38:01;;;;;;;12.33;9.43;;;12.00;99.90;;;;;;5095052;28;20235;-63
2021/11/12 13:40:31;;;;;;;12.33;9.63;;;12.20;99.90;;;;;;5109090;28;20580;-63
2021/11/12 13:42:59;;;;;;;15.83;9.57;;;12.20;99.90;;;;;;5105698;28;20593;-64
2021/11/12 13:45:30;;;;;;;13.47;8.77;;;12.20;99.90;;;;;;5101148;28;20194;-63
2021/11/12 13:48:11;;;;;;;11.50;8.43;;;12.20;99.90;;;;;;5111169;28;20202;-63
2021/11/12 13:50:41;;;;;;;11.40;8.67;;;12.10;99.90;;;;;;5104508;28;20214;-64
2021/11/12 13:53:10;;;;;;;9.67;7.97;;;12.10;99.90;;;;;;5103638;28;20198;-64
2021/11/12 13:55:40;;;;;;;10.10;7.67;;;12.00;99.90;;;;;;5103445;28;20230;-64
2021/11/12 13:58:08;;;;;;;9.53;7.50;;;11.90;99.90;;;;;;5104761;28;20230;-63
2021/11/12 14:00:39;;;;;;;13.00;8.97;;;11.80;99.90;;;;;;5099651;28;20568;-64
2021/11/12 14:03:13;;;;;;;10.13;7.97;;;11.70;99.90;;;;;;5100258;28;20234;-63
2021/11/12 14:05:55;;;;;;;12.70;7.33;;;11.60;99.90;;;;;;5119765;27;20191;-64
2021/11/12 14:08:34;;;;;;;8.63;7.20;;;11.60;99.90;;;;;;5102022;28;20251;-64
2021/11/12 14:11:06;;;;;;;7.07;6.37;;;11.60;99.90;;;;;;5118358;27;20190;-63
2021/11/12 14:13:39;;;;;;;7.20;6.50;;;11.60;99.90;;;;;;5100379;28;20206;-63
2021/11/12 14:16:14;;;;;;;7.57;6.77;;;11.70;99.90;;;;;;5105625;28;20264;-64
2021/11/12 14:19:36;;;;;;;6.73;6.03;;;11.60;99.90;;;;;;5103938;28;20201;-63
2021/11/12 14:22:07;;;;;;;7.37;6.63;;;11.60;99.90;;;;;;5105883;28;20192;-63
2021/11/12 14:24:50;;;;;;;12.13;6.90;;;11.60;99.90;;;;;;5099887;28;20285;-63
2021/11/12 14:27:25;;;;;;;11.07;8.87;;;11.50;99.90;;;;;;5099184;28;20828;-63
2021/11/12 14:30:16;;;;;;;10.77;6.90;;;11.50;99.90;;;;;;5105082;27;20191;-63
2021/11/12 14:33:11;;;;;;;9.43;7.60;;;11.50;99.90;;;;;;5105468;28;20199;-63
2021/11/12 14:38:33;;;;;;;12.93;9.43;;;11.50;99.90;;;;;;5101602;27;20303;-63
2021/11/12 14:41:24;;;;;;;8.80;7.63;;;11.50;99.90;;;;;;5103937;27;20276;-63
2021/11/12 14:47:01;;;;;;;10.37;8.43;;;11.50;99.90;;;;;;5103084;28;20210;-64
2021/11/12 14:49:32;;;;;;;9.67;7.60;;;11.50;99.90;;;;;;5119207;27;20198;-63
2021/11/12 14:52:06;;;;;;;12.77;8.13;;;11.50;99.90;;;;;;5097696;28;20571;-62
2021/11/12 14:54:39;;;;;;;11.70;8.70;;;11.50;99.90;;;;;;5097779;27;20258;-66
2021/11/12 14:57:16;;;;;;;12.50;8.00;;;11.50;99.90;;;;;;5102089;28;20194;-65
2021/11/12 14:59:46;;;;;;;12.57;8.30;;;11.50;99.90;;;;;;5112311;27;20665;-65
2021/11/12 15:02:14;;;;;;;13.17;9.17;;;11.50;99.90;;;;;;5108778;28;20222;-65
2021/11/12 15:04:44;;;;;;;13.97;9.13;;;11.50;99.90;;;;;;5105439;28;20655;-66
2021/11/12 15:07:15;;;;;;;12.23;8.63;;;11.50;99.90;;;;;;5096570;28;20286;-65
2021/11/12 15:09:44;;;;;;;10.73;8.30;;;11.40;99.90;;;;;;5100160;28;20273;-65
2021/11/12 15:12:12;;;;;;;10.60;8.27;;;11.40;99.90;;;;;;5121519;27;20266;-65
2021/11/12 15:14:45;;;;;;;12.13;8.97;;;11.40;99.90;;;;;;5107374;28;20183;-65
2021/11/12 15:17:15;;;;;;;13.10;9.80;;;11.40;99.90;;;;;;5101892;28;20862;-65
2021/11/12 15:19:46;;;;;;;10.97;8.87;;;11.40;99.90;;;;;;5104187;28;20247;-65
2021/11/12 15:22:31;;;;;;;17.63;14.07;;;11.30;99.90;;;;;;5102870;28;20305;-65
2021/11/12 15:25:08;;;;;;;12.07;8.33;;;11.30;99.90;;;;;;5096419;28;20256;-65
2021/11/12 15:30:34;;;;;;;12.87;9.33;;;11.10;99.90;;;;;;5073160;27;20218;-66
2021/11/12 15:33:04;;;;;;;14.63;8.33;;;11.00;99.90;;;;;;5106560;27;20207;-65
2021/11/12 15:35:34;;;;;;;13.83;9.03;;;10.90;99.90;;;;;;5105000;28;20281;-65
2021/11/12 15:38:07;;;;;;;14.60;11.87;;;10.80;99.90;;;;;;5100228;28;20229;-65
2021/11/12 15:40:36;;;;;;;29.50;26.37;;;10.70;99.90;;;;;;5100893;28;20651;-65
2021/11/12 15:46:08;;;;;;;15.70;12.17;;;10.50;99.90;;;;;;5108750;27;20695;-65
2021/11/12 15:48:39;;;;;;;14.00;8.90;;;10.30;99.90;;;;;;5106012;27;20222;-64
2021/11/12 15:54:13;;;;;;;10.43;8.20;;;10.10;99.90;;;;;;5107214;27;20256;-65
2021/11/12 15:56:57;;;;;;;11.67;8.60;;;10.10;99.90;;;;;;5103737;27;20211;-63
2021/11/12 15:59:35;;;;;;;10.93;8.80;;;10.00;99.90;;;;;;5103910;28;20214;-64
2021/11/12 16:11:11;;;;;;;16.20;9.93;;;9.70;99.90;;;;;;5091260;27;20267;-63
2021/11/12 16:13:41;;;;;;;14.03;9.80;;;9.60;99.90;;;;;;5100485;27;20621;-64
2021/11/12 16:16:36;;;;;;;11.07;8.87;;;9.60;99.90;;;;;;5103578;27;20287;-65
2021/11/12 16:19:11;;;;;;;14.97;10.43;;;9.60;99.90;;;;;;5105914;27;20203;-64
2021/11/12 16:21:56;;;;;;;13.30;9.30;;;9.60;99.90;;;;;;5108134;27;20240;-64
2021/11/12 16:27:18;;;;;;;15.13;10.47;;;9.60;99.90;;;;;;5097843;28;20241;-65
2021/11/12 16:29:48;;;;;;;16.07;10.30;;;9.60;99.90;;;;;;5103559;28;20517;-65
2021/11/12 16:32:22;;;;;;;14.23;11.50;;;9.60;99.90;;;;;;5101009;28;20570;-65
2021/11/12 16:34:55;;;;;;;15.73;10.80;;;9.60;99.90;;;;;;5099184;28;20820;-64
2021/11/12 16:37:25;;;;;;;18.27;11.17;;;9.60;99.90;;;;;;5099590;28;20780;-64
2021/11/12 16:39:57;;;;;;;15.10;10.43;;;9.60;99.90;;;;;;5099225;28;20199;-65
2021/11/12 16:45:15;;;;;;;14.57;10.87;;;9.50;99.90;;;;;;5090967;27;20775;-65
2021/11/12 16:48:02;;;;;;;18.03;11.43;;;9.40;99.90;;;;;;5102239;28;20223;-64
2021/11/12 16:50:42;;;;;;;17.03;11.17;;;9.50;99.90;;;;;;5100813;28;20222;-65
2021/11/12 16:53:23;;;;;;;18.37;13.33;;;9.40;99.90;;;;;;5105096;28;20270;-64
2021/11/12 16:58:52;;;;;;;19.53;12.93;;;9.40;99.90;;;;;;5099644;28;20210;-64
2021/11/12 17:04:20;;;;;;;16.40;11.83;;;9.30;99.90;;;;;;5110346;27;20190;-64
2021/11/12 17:06:50;;;;;;;20.60;11.97;;;9.30;99.90;;;;;;5102799;28;20634;-64
2021/11/12 17:09:45;;;;;;;19.33;12.00;;;9.30;99.90;;;;;;5121366;27;20226;-64
2021/11/12 17:12:45;;;;;;;19.40;13.30;;;9.20;99.90;;;;;;5107497;28;20195;-64
2021/11/12 17:45:56;;;;;;;19.30;12.57;;;9.10;99.90;;;;;;5105542;28;20343;-64
2021/11/12 17:48:36;;;;;;;19.90;12.90;;;9.00;99.90;;;;;;5102872;28;20190;-64
2021/11/12 17:51:17;;;;;;;20.53;13.33;;;9.00;99.90;;;;;;5118676;27;20228;-65
2021/11/12 18:01:30;;;;;;;20.70;13.93;;;9.00;99.90;;;;;;5110275;27;20588;-64
2021/11/12 18:02:28;;;;;;;21.97;14.33;;;9.00;99.90;;;;;;5120446;27;20218;-65